Point Vicente — WDB9763 — position and weather

sailwx.info

Track history (hours):
 
Tides and Currents Weather Stations Pressure Air Temp Water Temp Dewpoint Dewpoint Depression Visibility Wind Speed Wind Dir Waves Ship Positions

Point Vicente

Owner: Foss Maritime Company, Seattle, WA. More information available from US FCC via Universal Licensing System and Coast Guard Vessel Documentation Center.

Last reported at 2018-Apr-26 03:28 UTC. Time now 2018-Apr-26 03:51 UTC.
Position N 37°48' W 122°20'.

Length 32 m; draft 4.3 m.

Type: Tug. MMSI: 366982330.

Date/timePositionNaut miles runAvg speedWind from/ knotsBaromVisibWave heightAir tempDewpointWater temp
2018-Apr-26 03:28N 37°48' W 122°20'0 0.0
2018-Apr-26 02:58N 37°48' W 122°20'0 0.0
2018-Apr-26 02:28N 37°48' W 122°20'0 0.0
2018-Apr-26 01:58N 37°48' W 122°20'0 0.0
2018-Apr-26 01:28N 37°48' W 122°20'0 0.0
2018-Apr-26 00:58N 37°48' W 122°20'0 0.0
2018-Apr-26 00:28N 37°48' W 122°20'0 0.0
2018-Apr-26 00:00N 37°48' W 122°20'3 5.6
2018-Apr-25 23:31N 37°50' W 122°22'3 6.2
2018-Apr-25 23:01N 37°52' W 122°24'2 4.4
2018-Apr-25 22:31N 37°54' W 122°23'1 1.8
2018-Apr-25 21:59N 37°55' W 122°22'1 1.6
2018-Apr-25 21:26N 37°54' W 122°22'0 0.0
2018-Apr-25 20:56N 37°54' W 122°22'0 0.0
2018-Apr-25 20:26N 37°54' W 122°22'0 0.0
2018-Apr-25 19:50N 37°54' W 122°22'1 3.9
2018-Apr-25 19:30N 37°54' W 122°24'3 6.0
2018-Apr-25 19:00N 37°51' W 122°23'4 8.8
2018-Apr-25 18:30N 37°48' W 122°20'2 3.4
2018-Apr-25 18:00N 37°48' W 122°18'0 0.0
2018-Apr-25 17:30N 37°48' W 122°18'0 0.0
2018-Apr-25 17:00N 37°48' W 122°18'0 0.0
2018-Apr-25 16:30N 37°48' W 122°18'0 0.0
2018-Apr-25 16:00N 37°48' W 122°18'0 0.0
2018-Apr-25 15:30N 37°48' W 122°18'0 0.0
2018-Apr-25 15:01N 37°48' W 122°18'1 1.8
2018-Apr-25 14:30N 37°48' W 122°19'2 4.8
2018-Apr-25 14:00N 37°49' W 122°21'3 6.3
2018-Apr-25 13:30N 37°52' W 122°24'3 5.1
2018-Apr-25 13:00N 37°54' W 122°23'1 1.5
2018-Apr-25 12:30N 37°54' W 122°22'0 0.0
2018-Apr-25 12:00N 37°54' W 122°22'1 1.7
2018-Apr-25 11:30N 37°55' W 122°22'1 1.7
2018-Apr-25 11:00N 37°54' W 122°22'2 3.9
2018-Apr-25 10:30N 37°55' W 122°25'1 1.5
2018-Apr-25 10:00N 37°56' W 122°25'3 5.7
2018-Apr-25 09:30N 37°54' W 122°22'1 1.2
2018-Apr-25 09:00N 37°55' W 122°22'1 1.4
2018-Apr-25 08:25N 37°54' W 122°22'0 0.0
2018-Apr-25 07:58N 37°54' W 122°22'0 0.0
2018-Apr-25 07:28N 37°54' W 122°22'0 0.0
2018-Apr-25 06:58N 37°54' W 122°22'0 0.0
2018-Apr-25 06:28N 37°54' W 122°22'0 0.0
2018-Apr-25 05:58N 37°54' W 122°22'0 0.0
2018-Apr-25 05:28N 37°54' W 122°22'0 0.0
2018-Apr-25 04:58N 37°54' W 122°22'0 0.0
2018-Apr-25 04:28N 37°54' W 122°22'0 0.0
2018-Apr-25 03:58N 37°54' W 122°22'0 0.0
2018-Apr-25 03:28N 37°54' W 122°22'0 0.0
2018-Apr-25 02:55N 37°54' W 122°22'0 0.0
2018-Apr-25 02:29N 37°54' W 122°22'1 1.5
2018-Apr-25 01:51N 37°55' W 122°22'1 2.4
2018-Apr-25 01:28N 37°54' W 122°22'0 0.0
2018-Apr-25 00:58N 37°54' W 122°22'0 0.0
2018-Apr-25 00:28N 37°54' W 122°22'0 0.0
2018-Apr-24 23:58N 37°54' W 122°22'0 0.0
2018-Apr-24 23:28N 37°54' W 122°22'0 0.0
2018-Apr-24 22:52N 37°54' W 122°22'0 0.0
2018-Apr-24 22:25N 37°54' W 122°22'0 0.0
2018-Apr-24 21:55N 37°54' W 122°22'0 0.0
2018-Apr-24 21:25N 37°54' W 122°22'0 0.0
2018-Apr-24 20:55N 37°54' W 122°22'0 0.0
2018-Apr-24 20:28N 37°54' W 122°22'0 0.0
2018-Apr-24 19:58N 37°54' W 122°22'0 0.0
2018-Apr-24 19:28N 37°54' W 122°22'0 0.0
2018-Apr-24 18:55N 37°54' W 122°22'0 0.0
2018-Apr-24 18:28N 37°54' W 122°22'0 0.0
2018-Apr-24 17:58N 37°54' W 122°22'1 1.8
2018-Apr-24 17:30N 37°55' W 122°22'0 0.7
2018-Apr-24 17:01N 37°55' W 122°22'2 4.6
2018-Apr-24 16:30N 37°55' W 122°25'1 1.3
2018-Apr-24 16:00N 37°56' W 122°25'0 0.9
2018-Apr-24 15:30N 37°55' W 122°25'2 3.5
2018-Apr-24 14:54N 37°54' W 122°22'0 0.0
2018-Apr-24 14:30N 37°54' W 122°22'0 0.0
2018-Apr-24 13:54N 37°54' W 122°22'0 0.0
2018-Apr-24 13:30N 37°54' W 122°22'0 0.0
2018-Apr-24 13:00N 37°54' W 122°22'0 0.0
2018-Apr-24 12:30N 37°54' W 122°22'0 0.0
2018-Apr-24 12:00N 37°54' W 122°22'0 0.0
2018-Apr-24 11:27N 37°54' W 122°22'0 0.0
2018-Apr-24 11:00N 37°54' W 122°22'0 0.0
2018-Apr-24 10:30N 37°54' W 122°22'0 0.0
2018-Apr-24 10:00N 37°54' W 122°22'0 0.0
2018-Apr-24 09:30N 37°54' W 122°22'0 0.0
2018-Apr-24 09:00N 37°54' W 122°22'0 0.0
2018-Apr-24 08:30N 37°54' W 122°22'0 0.0
2018-Apr-24 08:00N 37°54' W 122°22'0 0.0
2018-Apr-24 07:30N 37°54' W 122°22'0 0.0
2018-Apr-24 07:00N 37°54' W 122°22'0 0.0
2018-Apr-24 06:30N 37°54' W 122°22'0 0.0
2018-Apr-24 06:00N 37°54' W 122°22'0 0.0
2018-Apr-24 05:30N 37°54' W 122°22'0 0.0
2018-Apr-24 05:00N 37°54' W 122°22'0 0.3
2018-Apr-24 04:30N 37°54' W 122°23'1 2.1
2018-Apr-24 04:00N 37°55' W 122°22'1 1.8
2018-Apr-24 03:30N 37°54' W 122°22'0 0.0
2018-Apr-24 03:00N 37°54' W 122°22'0 0.0
2018-Apr-24 02:30N 37°54' W 122°22'0 0.0
2018-Apr-24 02:00N 37°54' W 122°22'0 0.8
2018-Apr-24 01:30N 37°54' W 122°23'3 5.4
2018-Apr-24 01:00N 37°52' W 122°23'3 6.1
2018-Apr-24 00:30N 37°49' W 122°21'3 6.0
2018-Apr-24 00:00N 37°48' W 122°18'0 0.3
2018-Apr-23 23:29N 37°48' W 122°18'0 0.0
2018-Apr-23 22:59N 37°48' W 122°18'0 0.0
2018-Apr-23 22:29N 37°48' W 122°18'0 0.0
2018-Apr-23 21:59N 37°48' W 122°18'0 0.0
2018-Apr-23 21:29N 37°48' W 122°18'0 0.0
2018-Apr-23 20:59N 37°48' W 122°18'0 0.0
2018-Apr-23 20:29N 37°48' W 122°18'0 0.0
2018-Apr-23 19:59N 37°48' W 122°18'0 0.0
2018-Apr-23 19:30N 37°48' W 122°18'1 2.2
2018-Apr-23 19:00N 37°48' W 122°19'2 4.3
2018-Apr-23 18:30N 37°46' W 122°21'1 2.7
2018-Apr-23 17:58N 37°44' W 122°21'0 0.0
2018-Apr-23 17:28N 37°44' W 122°21'0 0.0
2018-Apr-23 16:58N 37°44' W 122°21'0 0.0
2018-Apr-23 16:28N 37°44' W 122°21'0 0.0
2018-Apr-23 15:58N 37°44' W 122°21'0 0.0
2018-Apr-23 15:28N 37°44' W 122°21'0 0.0
2018-Apr-23 14:58N 37°44' W 122°21'0 0.2
2018-Apr-23 14:28N 37°44' W 122°21'0 0.2
2018-Apr-23 13:58N 37°44' W 122°21'0 0.1
2018-Apr-23 13:28N 37°44' W 122°21'0 0.6
2018-Apr-23 13:00N 37°44' W 122°21'4 7.0
2018-Apr-23 12:31N 37°47' W 122°23'3 6.0
2018-Apr-23 12:00N 37°50' W 122°23'3 5.8
2018-Apr-23 11:31N 37°53' W 122°24'2 3.6
2018-Apr-23 11:00N 37°54' W 122°23'0 0.8
2018-Apr-23 10:30N 37°54' W 122°22'0 0.0
2018-Apr-23 09:58N 37°54' W 122°22'0 0.0
2018-Apr-23 09:28N 37°54' W 122°22'0 0.1
2018-Apr-23 09:00N 37°54' W 122°22'1 1.9
2018-Apr-23 08:31N 37°55' W 122°22'1 1.1
2018-Apr-23 08:00N 37°55' W 122°22'1 2.8
2018-Apr-23 07:31N 37°54' W 122°23'2 3.6
2018-Apr-23 07:01N 37°56' W 122°25'0 0.1
2018-Apr-23 06:31N 37°56' W 122°25'3 5.0
2018-Apr-23 06:01N 37°54' W 122°22'0 0.0
2018-Apr-23 05:30N 37°54' W 122°22'0 0.0
2018-Apr-23 05:00N 37°54' W 122°22'0 0.0
2018-Apr-23 04:30N 37°54' W 122°22'0 0.0
2018-Apr-23 04:00N 37°54' W 122°22'0 0.0
2018-Apr-23 03:30N 37°54' W 122°22'0 0.0
2018-Apr-23 02:57N 37°54' W 122°22'0 0.0
2018-Apr-23 02:30N 37°54' W 122°22'0 0.0
2018-Apr-23 02:00N 37°54' W 122°22'0 0.0
2018-Apr-23 01:30N 37°54' W 122°22'0 0.0
2018-Apr-23 01:00N 37°54' W 122°22'0 0.0
2018-Apr-23 00:30N 37°54' W 122°22'0 0.0
2018-Apr-23 00:00N 37°54' W 122°22'0 0.0
2018-Apr-22 23:27N 37°54' W 122°22'0 0.0
2018-Apr-22 23:00N 37°54' W 122°22'0 0.2
2018-Apr-22 22:30N 37°54' W 122°22'1 1.9
2018-Apr-22 22:01N 37°55' W 122°22'1 1.8
2018-Apr-22 21:30N 37°54' W 122°22'0 0.1
2018-Apr-22 21:01N 37°54' W 122°22'0 0.0
2018-Apr-22 20:29N 37°54' W 122°22'0 0.0
2018-Apr-22 19:59N 37°54' W 122°22'0 0.0
2018-Apr-22 19:29N 37°54' W 122°22'0 0.0
2018-Apr-22 18:59N 37°54' W 122°22'0 0.0
2018-Apr-22 18:29N 37°54' W 122°22'0 0.0
2018-Apr-22 17:59N 37°54' W 122°22'0 0.0
2018-Apr-22 17:29N 37°54' W 122°22'0 0.0
2018-Apr-22 16:59N 37°54' W 122°22'0 0.0
2018-Apr-22 16:29N 37°54' W 122°22'0 0.0
2018-Apr-22 15:59N 37°54' W 122°22'0 0.0
2018-Apr-22 15:29N 37°54' W 122°22'0 0.0
2018-Apr-22 14:59N 37°54' W 122°22'0 0.0
2018-Apr-22 14:29N 37°54' W 122°22'0 0.0
2018-Apr-22 13:59N 37°54' W 122°22'0 0.0
2018-Apr-22 13:29N 37°54' W 122°22'0 0.0
2018-Apr-22 12:59N 37°54' W 122°22'0 0.0
2018-Apr-22 12:29N 37°54' W 122°22'0 0.0
2018-Apr-22 11:59N 37°54' W 122°22'0 0.0
2018-Apr-22 11:29N 37°54' W 122°22'0 0.0
2018-Apr-22 10:59N 37°54' W 122°22'0 0.0
2018-Apr-22 10:26N 37°54' W 122°22'0 0.0
2018-Apr-22 09:59N 37°54' W 122°22'0 0.0
2018-Apr-22 09:29N 37°54' W 122°22'0 0.0
2018-Apr-22 08:59N 37°54' W 122°22'0 0.0
2018-Apr-22 08:29N 37°54' W 122°22'0 0.0
2018-Apr-22 07:59N 37°54' W 122°22'0 0.0
2018-Apr-22 07:29N 37°54' W 122°22'0 0.0
2018-Apr-22 06:59N 37°54' W 122°22'0 0.0
2018-Apr-22 06:29N 37°54' W 122°22'0 0.0
2018-Apr-22 05:59N 37°54' W 122°22'0 0.0
2018-Apr-22 05:29N 37°54' W 122°22'0 0.0
2018-Apr-22 04:59N 37°54' W 122°22'2 4.2
2018-Apr-22 04:30N 37°55' W 122°25'1 1.0
2018-Apr-22 04:00N 37°55' W 122°25'1 1.4
2018-Apr-22 03:30N 37°55' W 122°25'1 2.4
2018-Apr-22 03:00N 37°54' W 122°24'2 3.0
2018-Apr-22 02:30N 37°54' W 122°22'0 0.0
2018-Apr-22 02:00N 37°54' W 122°22'0 0.4
2018-Apr-22 01:30N 37°54' W 122°23'3 5.7
2018-Apr-22 01:00N 37°51' W 122°23'4 7.6
2018-Apr-22 00:31N 37°48' W 122°21'1 2.5
2018-Apr-22 00:00N 37°48' W 122°19'0 0.0
2018-Apr-21 23:30N 37°48' W 122°19'0 0.0
2018-Apr-21 23:00N 37°48' W 122°19'0 0.0
2018-Apr-21 22:30N 37°48' W 122°19'0 0.0
2018-Apr-21 22:00N 37°48' W 122°19'0 0.0
2018-Apr-21 21:30N 37°48' W 122°19'0 0.0
2018-Apr-21 21:00N 37°48' W 122°19'0 0.0
2018-Apr-21 20:30N 37°48' W 122°19'0 0.0
2018-Apr-21 20:00N 37°48' W 122°19'0 0.0
2018-Apr-21 19:30N 37°48' W 122°19'0 0.0
2018-Apr-21 19:00N 37°48' W 122°19'0 0.0
2018-Apr-21 18:30N 37°48' W 122°19'0 0.0
2018-Apr-21 18:00N 37°48' W 122°19'0 0.0
2018-Apr-21 17:30N 37°48' W 122°19'0 0.0
2018-Apr-21 17:00N 37°48' W 122°19'0 0.0
2018-Apr-21 16:30N 37°48' W 122°19'0 0.0
2018-Apr-21 16:00N 37°48' W 122°19'0 0.0
2018-Apr-21 15:30N 37°48' W 122°19'1 1.7
2018-Apr-21 15:00N 37°48' W 122°20'2 4.1
2018-Apr-21 14:30N 37°50' W 122°22'2 4.4
2018-Apr-21 14:00N 37°51' W 122°23'3 6.2
2018-Apr-21 13:30N 37°54' W 122°24'1 2.8
2018-Apr-21 13:00N 37°54' W 122°22'0 0.1
2018-Apr-21 12:30N 37°54' W 122°22'0 0.0
2018-Apr-21 11:59N 37°54' W 122°22'0 0.0
2018-Apr-21 11:29N 37°54' W 122°22'0 0.0
2018-Apr-21 10:59N 37°54' W 122°22'0 0.0
2018-Apr-21 10:29N 37°54' W 122°22'0 0.0
2018-Apr-21 09:59N 37°54' W 122°22'0 0.0
2018-Apr-21 09:29N 37°54' W 122°22'0 0.0
2018-Apr-21 08:59N 37°54' W 122°22'0 0.0
2018-Apr-21 08:29N 37°54' W 122°22'0 0.0
2018-Apr-21 07:59N 37°54' W 122°22'0 0.0
2018-Apr-21 07:29N 37°54' W 122°22'0 0.0
2018-Apr-21 06:59N 37°54' W 122°22'0 0.0
2018-Apr-21 06:29N 37°54' W 122°22'0 0.0
2018-Apr-21 05:59N 37°54' W 122°22'0 0.0
2018-Apr-21 05:29N 37°54' W 122°22'0 0.0
2018-Apr-21 04:59N 37°54' W 122°22'0 0.0
2018-Apr-21 04:31N 37°54' W 122°22'0 0.2
2018-Apr-21 04:00N 37°54' W 122°22'1 1.7
2018-Apr-21 03:29N 37°55' W 122°22'1 1.6
2018-Apr-21 02:58N 37°54' W 122°22'0 0.0
2018-Apr-21 02:28N 37°54' W 122°22'0 0.0
2018-Apr-21 01:58N 37°54' W 122°22'0 0.0
2018-Apr-21 01:28N 37°54' W 122°22'0 0.0
2018-Apr-21 00:58N 37°54' W 122°22'0 0.0
2018-Apr-21 00:28N 37°54' W 122°22'0 0.0
2018-Apr-20 23:58N 37°54' W 122°22'0 0.0
2018-Apr-20 23:28N 37°54' W 122°22'0 0.0
2018-Apr-20 22:55N 37°54' W 122°22'0 0.0
2018-Apr-20 22:28N 37°54' W 122°22'0 0.0
2018-Apr-20 21:58N 37°54' W 122°22'0 0.0
2018-Apr-20 21:25N 37°54' W 122°22'0 0.0
2018-Apr-20 20:58N 37°54' W 122°22'0 0.0
2018-Apr-20 20:25N 37°54' W 122°22'0 0.0
2018-Apr-20 20:00N 37°54' W 122°22'0 0.0
2018-Apr-20 19:30N 37°54' W 122°22'0 0.0
2018-Apr-20 19:00N 37°54' W 122°22'0 0.0
2018-Apr-20 18:30N 37°54' W 122°22'0 0.0
2018-Apr-20 18:00N 37°54' W 122°22'0 0.1
2018-Apr-20 17:27N 37°54' W 122°22'2 3.7
2018-Apr-20 17:00N 37°54' W 122°24'3 5.9
2018-Apr-20 16:30N 37°51' W 122°23'4 7.4
2018-Apr-20 16:00N 37°47' W 122°21'1 2.4
2018-Apr-20 15:29N 37°46' W 122°21'0 0.0
2018-Apr-20 14:59N 37°46' W 122°21'0 0.0
2018-Apr-20 14:29N 37°46' W 122°21'0 0.0
2018-Apr-20 13:59N 37°46' W 122°21'0 0.0
2018-Apr-20 13:29N 37°46' W 122°21'0 0.0
2018-Apr-20 12:59N 37°46' W 122°21'0 0.1
2018-Apr-20 12:29N 37°46' W 122°20'0 0.0
2018-Apr-20 11:59N 37°46' W 122°20'0 0.2
2018-Apr-20 11:29N 37°46' W 122°20'0 0.4
2018-Apr-20 10:59N 37°46' W 122°20'0 0.1
2018-Apr-20 10:29N 37°46' W 122°20'0 0.0
2018-Apr-20 09:59N 37°46' W 122°20'0 0.0
2018-Apr-20 09:30N 37°46' W 122°20'1 2.2
2018-Apr-20 09:00N 37°47' W 122°21'4 7.4
2018-Apr-20 08:30N 37°50' W 122°23'3 6.0
2018-Apr-20 08:00N 37°53' W 122°24'2 4.0
2018-Apr-20 07:30N 37°54' W 122°22'1 2.1
2018-Apr-20 07:00N 37°55' W 122°22'1 2.0
2018-Apr-20 06:31N 37°54' W 122°22'0 0.8
2018-Apr-20 05:58N 37°54' W 122°22'0 0.0
2018-Apr-20 05:28N 37°54' W 122°22'0 0.0
2018-Apr-20 04:58N 37°54' W 122°22'0 0.0
2018-Apr-20 04:28N 37°54' W 122°22'0 0.0
2018-Apr-20 03:58N 37°54' W 122°22'0 0.0
2018-Apr-20 03:28N 37°54' W 122°22'0 0.0
2018-Apr-20 02:59N 37°54' W 122°22'1 1.9
2018-Apr-20 02:30N 37°55' W 122°22'2 3.0
2018-Apr-20 02:01N 37°54' W 122°24'3 5.9
2018-Apr-20 01:31N 37°51' W 122°24'4 8.3
2018-Apr-20 01:01N 37°48' W 122°21'2 4.2
2018-Apr-20 00:30N 37°46' W 122°21'0 0.2
2018-Apr-20 00:00N 37°46' W 122°21'0 0.2
2018-Apr-19 23:29N 37°45' W 122°21'0 0.1
2018-Apr-19 22:59N 37°45' W 122°21'0 0.0
2018-Apr-19 22:29N 37°45' W 122°21'0 0.1
2018-Apr-19 21:59N 37°45' W 122°21'0 0.0
2018-Apr-19 21:29N 37°45' W 122°21'0 0.0
2018-Apr-19 21:00N 37°45' W 122°21'0 0.0
2018-Apr-19 20:30N 37°45' W 122°21'1 2.8
2018-Apr-19 20:00N 37°47' W 122°21'2 4.4
2018-Apr-19 19:30N 37°49' W 122°20'0 1.0
2018-Apr-19 19:00N 37°49' W 122°19'0 0.9
2018-Apr-19 18:30N 37°49' W 122°20'0 0.0
2018-Apr-19 18:00N 37°49' W 122°20'0 0.0
2018-Apr-19 17:30N 37°49' W 122°20'0 0.0
2018-Apr-19 17:00N 37°49' W 122°20'0 0.0
2018-Apr-19 16:30N 37°49' W 122°20'0 0.0
2018-Apr-19 16:00N 37°49' W 122°20'0 0.0
2018-Apr-19 15:30N 37°49' W 122°20'0 0.0
2018-Apr-19 15:00N 37°49' W 122°20'0 0.0
2018-Apr-19 14:30N 37°49' W 122°20'0 0.0
2018-Apr-19 14:00N 37°49' W 122°20'0 0.0
2018-Apr-19 13:30N 37°49' W 122°20'0 0.3
2018-Apr-19 13:00N 37°49' W 122°20'2 3.7
2018-Apr-19 12:30N 37°50' W 122°22'2 4.5
2018-Apr-19 12:00N 37°52' W 122°24'3 5.7
2018-Apr-19 11:30N 37°54' W 122°24'2 3.7
2018-Apr-19 11:00N 37°55' W 122°22'1 1.6
2018-Apr-19 10:30N 37°54' W 122°22'0 0.0
2018-Apr-19 09:58N 37°54' W 122°22'0 0.0
2018-Apr-19 09:28N 37°54' W 122°22'0 0.0
2018-Apr-19 08:58N 37°54' W 122°22'0 0.0
2018-Apr-19 08:28N 37°54' W 122°22'0 0.0
2018-Apr-19 07:58N 37°54' W 122°22'0 0.0
2018-Apr-19 07:28N 37°54' W 122°22'0 0.0
2018-Apr-19 06:58N 37°54' W 122°22'0 0.0
2018-Apr-19 06:28N 37°54' W 122°22'0 0.0
2018-Apr-19 05:58N 37°54' W 122°22'0 0.0
2018-Apr-19 05:28N 37°54' W 122°22'0 0.0
2018-Apr-19 04:58N 37°54' W 122°22'0 0.0
2018-Apr-19 04:28N 37°54' W 122°22'0 0.0
2018-Apr-19 03:58N 37°54' W 122°22'0 0.0
2018-Apr-19 03:28N 37°54' W 122°22'1 3.1
2018-Apr-19 03:00N 37°54' W 122°24'5 9.2
2018-Apr-19 02:30N 37°50' W 122°22'4 8.1
2018-Apr-19 02:00N 37°47' W 122°17'0 0.2
2018-Apr-19 01:30N 37°48' W 122°18'1 2.1
2018-Apr-19 01:00N 37°48' W 122°19'3 5.8
2018-Apr-19 00:30N 37°50' W 122°22'3 6.5
2018-Apr-19 00:00N 37°52' W 122°24'2 4.6
2018-Apr-18 23:30N 37°54' W 122°23'0 0.7
2018-Apr-18 23:00N 37°54' W 122°22'1 1.9
2018-Apr-18 22:30N 37°55' W 122°22'1 2.2
2018-Apr-18 22:00N 37°54' W 122°23'2 4.6
2018-Apr-18 21:30N 37°52' W 122°24'3 6.7
2018-Apr-18 21:00N 37°49' W 122°22'3 6.1
2018-Apr-18 20:30N 37°48' W 122°18'0 0.9
2018-Apr-18 20:00N 37°48' W 122°18'0 0.0
2018-Apr-18 19:30N 37°48' W 122°18'0 0.0
2018-Apr-18 19:00N 37°48' W 122°18'0 0.0
2018-Apr-18 18:29N 37°48' W 122°18'0 0.0
2018-Apr-18 17:59N 37°48' W 122°18'0 0.0
2018-Apr-18 17:29N 37°48' W 122°18'0 0.0
2018-Apr-18 16:59N 37°48' W 122°18'0 0.0
2018-Apr-18 16:29N 37°48' W 122°18'0 0.0
2018-Apr-18 15:59N 37°48' W 122°18'0 0.0
2018-Apr-18 15:29N 37°48' W 122°18'0 0.0
2018-Apr-18 14:59N 37°48' W 122°18'0 0.6
2018-Apr-18 14:30N 37°48' W 122°18'3 6.1
2018-Apr-18 14:00N 37°49' W 122°22'0 0.1
2018-Apr-18 13:30N 37°49' W 122°22'0 0.0
2018-Apr-18 13:00N 37°49' W 122°22'0 0.0
2018-Apr-18 12:30N 37°49' W 122°22'0 0.0
2018-Apr-18 12:00N 37°49' W 122°22'0 0.0
2018-Apr-18 11:30N 37°49' W 122°22'0 0.0
2018-Apr-18 11:00N 37°49' W 122°22'0 0.0
2018-Apr-18 10:27N 37°49' W 122°22'0 0.0
2018-Apr-18 09:57N 37°49' W 122°22'0 0.0
2018-Apr-18 09:30N 37°49' W 122°22'0 0.0
2018-Apr-18 09:00N 37°49' W 122°22'0 0.0
2018-Apr-18 08:30N 37°49' W 122°22'0 0.0
2018-Apr-18 08:00N 37°49' W 122°22'0 0.0
2018-Apr-18 07:30N 37°49' W 122°22'0 0.0
2018-Apr-18 07:00N 37°49' W 122°22'0 0.0
2018-Apr-18 06:30N 37°49' W 122°22'0 0.0
2018-Apr-18 06:00N 37°49' W 122°22'2 4.3
2018-Apr-18 05:31N 37°51' W 122°23'3 6.2
2018-Apr-18 05:00N 37°54' W 122°24'2 4.4
2018-Apr-18 04:30N 37°55' W 122°22'0 1.0
2018-Apr-18 04:00N 37°55' W 122°22'1 1.9
2018-Apr-18 03:29N 37°54' W 122°22'0 0.0
2018-Apr-18 02:59N 37°54' W 122°22'0 0.0
2018-Apr-18 02:29N 37°54' W 122°22'0 0.0
2018-Apr-18 01:59N 37°54' W 122°22'0 0.0
2018-Apr-18 01:29N 37°54' W 122°22'2 3.8
2018-Apr-18 01:00N 37°53' W 122°24'5 9.1
2018-Apr-18 00:30N 37°49' W 122°22'0 0.3
2018-Apr-18 00:00N 37°49' W 122°22'2 3.2
2018-Apr-17 23:30N 37°50' W 122°23'3 5.1
2018-Apr-17 23:01N 37°53' W 122°24'2 3.8
2018-Apr-17 22:30N 37°54' W 122°23'1 2.3
2018-Apr-17 22:00N 37°55' W 122°22'0 0.1
2018-Apr-17 21:31N 37°55' W 122°22'1 1.6
2018-Apr-17 21:01N 37°54' W 122°22'0 0.0
2018-Apr-17 20:30N 37°54' W 122°22'0 0.0
2018-Apr-17 20:00N 37°54' W 122°22'1 1.8
2018-Apr-17 19:30N 37°55' W 122°22'0 0.9
2018-Apr-17 19:00N 37°55' W 122°22'2 4.9
2018-Apr-17 18:30N 37°53' W 122°24'3 6.8
2018-Apr-17 18:00N 37°50' W 122°23'3 5.2
2018-Apr-17 17:30N 37°47' W 122°22'2 2.8
2018-Apr-17 16:59N 37°46' W 122°21'0 0.0
2018-Apr-17 16:29N 37°46' W 122°21'0 0.0
2018-Apr-17 15:59N 37°46' W 122°21'0 0.1
2018-Apr-17 15:29N 37°46' W 122°21'0 0.3
2018-Apr-17 14:59N 37°46' W 122°21'0 0.1
2018-Apr-17 14:29N 37°46' W 122°21'0 0.0
2018-Apr-17 13:59N 37°46' W 122°21'0 0.0
2018-Apr-17 13:29N 37°46' W 122°21'0 0.1
2018-Apr-17 12:59N 37°46' W 122°21'0 0.0
2018-Apr-17 12:29N 37°46' W 122°21'0 0.0
2018-Apr-17 11:59N 37°46' W 122°21'0 0.0
2018-Apr-17 11:30N 37°46' W 122°21'1 2.1
2018-Apr-17 11:00N 37°47' W 122°21'2 3.8
2018-Apr-17 10:30N 37°49' W 122°22'0 0.0
2018-Apr-17 10:00N 37°49' W 122°22'0 0.0
2018-Apr-17 09:30N 37°49' W 122°22'0 0.0
2018-Apr-17 09:00N 37°49' W 122°22'0 0.0
2018-Apr-17 08:30N 37°49' W 122°22'0 0.0
2018-Apr-17 08:00N 37°49' W 122°22'0 0.0
2018-Apr-17 07:30N 37°49' W 122°22'0 0.0
2018-Apr-17 07:00N 37°49' W 122°22'0 0.0
2018-Apr-17 06:30N 37°49' W 122°22'0 0.0
2018-Apr-17 06:00N 37°49' W 122°22'0 0.0
2018-Apr-17 05:30N 37°49' W 122°22'0 0.0
2018-Apr-17 05:00N 37°49' W 122°22'0 0.0
2018-Apr-17 04:30N 37°49' W 122°22'0 0.0
2018-Apr-17 04:00N 37°49' W 122°22'0 0.0
2018-Apr-17 03:30N 37°49' W 122°22'0 0.0
2018-Apr-17 03:00N 37°49' W 122°22'0 0.0
2018-Apr-17 02:30N 37°49' W 122°22'0 0.0
2018-Apr-17 02:00N 37°49' W 122°22'0 0.0
2018-Apr-17 01:30N 37°49' W 122°22'0 0.0
2018-Apr-17 01:00N 37°49' W 122°22'0 0.0
2018-Apr-17 00:30N 37°49' W 122°22'0 0.0
2018-Apr-17 00:00N 37°49' W 122°22'0 0.0
2018-Apr-16 23:30N 37°49' W 122°22'0 0.0
2018-Apr-16 23:00N 37°49' W 122°22'0 0.0
2018-Apr-16 22:30N 37°49' W 122°22'0 0.0
2018-Apr-16 22:00N 37°49' W 122°22'0 0.0
2018-Apr-16 21:30N 37°49' W 122°22'0 0.0
2018-Apr-16 21:00N 37°49' W 122°22'0 0.0
2018-Apr-16 20:30N 37°49' W 122°22'2 4.3
2018-Apr-16 20:00N 37°48' W 122°20'1 2.6
2018-Apr-16 19:30N 37°48' W 122°18'0 0.0
2018-Apr-16 18:59N 37°48' W 122°18'0 0.0
2018-Apr-16 18:29N 37°48' W 122°18'0 0.0
2018-Apr-16 17:59N 37°48' W 122°18'0 0.0
2018-Apr-16 17:29N 37°48' W 122°18'0 0.0
2018-Apr-16 16:59N 37°48' W 122°18'0 0.0
2018-Apr-16 16:29N 37°48' W 122°18'0 0.0
2018-Apr-16 15:59N 37°48' W 122°18'0 0.0
2018-Apr-16 15:29N 37°48' W 122°18'3 6.0
2018-Apr-16 15:00N 37°49' W 122°21'1 1.1
2018-Apr-16 14:30N 37°49' W 122°22'0 0.0
2018-Apr-16 14:00N 37°49' W 122°22'0 0.0
2018-Apr-16 13:30N 37°49' W 122°22'0 0.0
2018-Apr-16 13:00N 37°49' W 122°22'0 0.0
2018-Apr-16 12:30N 37°49' W 122°22'0 0.0
2018-Apr-16 12:00N 37°49' W 122°22'0 0.0
2018-Apr-16 11:30N 37°49' W 122°22'0 0.0
2018-Apr-16 11:00N 37°49' W 122°22'1 2.4
2018-Apr-16 10:30N 37°50' W 122°22'4 7.3
2018-Apr-16 10:00N 37°54' W 122°24'2 3.3
2018-Apr-16 09:30N 37°54' W 122°22'1 2.8
2018-Apr-16 09:00N 37°54' W 122°24'4 7.4
2018-Apr-16 08:30N 37°51' W 122°23'3 6.7
2018-Apr-16 08:00N 37°49' W 122°19'0 0.0
2018-Apr-16 07:30N 37°49' W 122°19'0 0.0
2018-Apr-16 07:00N 37°49' W 122°19'0 0.0
2018-Apr-16 06:30N 37°49' W 122°19'0 0.0
2018-Apr-16 06:00N 37°49' W 122°19'0 0.0
2018-Apr-16 05:30N 37°49' W 122°19'0 0.0
2018-Apr-16 05:00N 37°49' W 122°19'0 0.0
2018-Apr-16 04:30N 37°49' W 122°19'0 0.0
2018-Apr-16 04:00N 37°49' W 122°19'0 0.0
2018-Apr-16 03:30N 37°49' W 122°19'  
Track history (hours):
 
Tides and Currents Weather Stations Pressure Air Temp Water Temp Dewpoint Dewpoint Depression Visibility Wind Speed Wind Dir Waves Ship Positions

Point Vicente

Owner: Foss Maritime Company, Seattle, WA. More information available from US FCC via Universal Licensing System and Coast Guard Vessel Documentation Center.

Last reported at 2018-Apr-26 03:28 UTC. Time now 2018-Apr-26 03:51 UTC.
Position N 37°48' W 122°20'.

Length 32 m; draft 4.3 m.

Type: Tug. MMSI: 366982330.

Date/timePositionNaut miles runAvg speedWind from/ knotsBaromVisibWave heightAir tempDewpointWater temp
2018-Apr-26 03:28N 37°48' W 122°20'0 0.0
2018-Apr-26 02:58N 37°48' W 122°20'0 0.0
2018-Apr-26 02:28N 37°48' W 122°20'0 0.0
2018-Apr-26 01:58N 37°48' W 122°20'0 0.0
2018-Apr-26 01:28N 37°48' W 122°20'0 0.0
2018-Apr-26 00:58N 37°48' W 122°20'0 0.0
2018-Apr-26 00:28N 37°48' W 122°20'0 0.0
2018-Apr-26 00:00N 37°48' W 122°20'3 5.6
2018-Apr-25 23:31N 37°50' W 122°22'3 6.2
2018-Apr-25 23:01N 37°52' W 122°24'2 4.4
2018-Apr-25 22:31N 37°54' W 122°23'1 1.8
2018-Apr-25 21:59N 37°55' W 122°22'1 1.6
2018-Apr-25 21:26N 37°54' W 122°22'0 0.0
2018-Apr-25 20:56N 37°54' W 122°22'0 0.0
2018-Apr-25 20:26N 37°54' W 122°22'0 0.0
2018-Apr-25 19:50N 37°54' W 122°22'1 3.9
2018-Apr-25 19:30N 37°54' W 122°24'3 6.0
2018-Apr-25 19:00N 37°51' W 122°23'4 8.8
2018-Apr-25 18:30N 37°48' W 122°20'2 3.4
2018-Apr-25 18:00N 37°48' W 122°18'0 0.0
2018-Apr-25 17:30N 37°48' W 122°18'0 0.0
2018-Apr-25 17:00N 37°48' W 122°18'0 0.0
2018-Apr-25 16:30N 37°48' W 122°18'0 0.0
2018-Apr-25 16:00N 37°48' W 122°18'0 0.0
2018-Apr-25 15:30N 37°48' W 122°18'0 0.0
2018-Apr-25 15:01N 37°48' W 122°18'1 1.8
2018-Apr-25 14:30N 37°48' W 122°19'2 4.8
2018-Apr-25 14:00N 37°49' W 122°21'3 6.3
2018-Apr-25 13:30N 37°52' W 122°24'3 5.1
2018-Apr-25 13:00N 37°54' W 122°23'1 1.5
2018-Apr-25 12:30N 37°54' W 122°22'0 0.0
2018-Apr-25 12:00N 37°54' W 122°22'1 1.7
2018-Apr-25 11:30N 37°55' W 122°22'1 1.7
2018-Apr-25 11:00N 37°54' W 122°22'2 3.9
2018-Apr-25 10:30N 37°55' W 122°25'1 1.5
2018-Apr-25 10:00N 37°56' W 122°25'3 5.7
2018-Apr-25 09:30N 37°54' W 122°22'1 1.2
2018-Apr-25 09:00N 37°55' W 122°22'1 1.4
2018-Apr-25 08:25N 37°54' W 122°22'0 0.0
2018-Apr-25 07:58N 37°54' W 122°22'0 0.0
2018-Apr-25 07:28N 37°54' W 122°22'0 0.0
2018-Apr-25 06:58N 37°54' W 122°22'0 0.0
2018-Apr-25 06:28N 37°54' W 122°22'0 0.0
2018-Apr-25 05:58N 37°54' W 122°22'0 0.0
2018-Apr-25 05:28N 37°54' W 122°22'0 0.0
2018-Apr-25 04:58N 37°54' W 122°22'0 0.0
2018-Apr-25 04:28N 37°54' W 122°22'0 0.0
2018-Apr-25 03:58N 37°54' W 122°22'0 0.0
2018-Apr-25 03:28N 37°54' W 122°22'0 0.0
2018-Apr-25 02:55N 37°54' W 122°22'0 0.0
2018-Apr-25 02:29N 37°54' W 122°22'1 1.5
2018-Apr-25 01:51N 37°55' W 122°22'1 2.4
2018-Apr-25 01:28N 37°54' W 122°22'0 0.0
2018-Apr-25 00:58N 37°54' W 122°22'0 0.0
2018-Apr-25 00:28N 37°54' W 122°22'0 0.0
2018-Apr-24 23:58N 37°54' W 122°22'0 0.0
2018-Apr-24 23:28N 37°54' W 122°22'0 0.0
2018-Apr-24 22:52N 37°54' W 122°22'0 0.0
2018-Apr-24 22:25N 37°54' W 122°22'0 0.0
2018-Apr-24 21:55N 37°54' W 122°22'0 0.0
2018-Apr-24 21:25N 37°54' W 122°22'0 0.0
2018-Apr-24 20:55N 37°54' W 122°22'0 0.0
2018-Apr-24 20:28N 37°54' W 122°22'0 0.0
2018-Apr-24 19:58N 37°54' W 122°22'0 0.0
2018-Apr-24 19:28N 37°54' W 122°22'0 0.0
2018-Apr-24 18:55N 37°54' W 122°22'0 0.0
2018-Apr-24 18:28N 37°54' W 122°22'0 0.0
2018-Apr-24 17:58N 37°54' W 122°22'1 1.8
2018-Apr-24 17:30N 37°55' W 122°22'0 0.7
2018-Apr-24 17:01N 37°55' W 122°22'2 4.6
2018-Apr-24 16:30N 37°55' W 122°25'1 1.3
2018-Apr-24 16:00N 37°56' W 122°25'0 0.9
2018-Apr-24 15:30N 37°55' W 122°25'2 3.5
2018-Apr-24 14:54N 37°54' W 122°22'0 0.0
2018-Apr-24 14:30N 37°54' W 122°22'0 0.0
2018-Apr-24 13:54N 37°54' W 122°22'0 0.0
2018-Apr-24 13:30N 37°54' W 122°22'0 0.0
2018-Apr-24 13:00N 37°54' W 122°22'0 0.0
2018-Apr-24 12:30N 37°54' W 122°22'0 0.0
2018-Apr-24 12:00N 37°54' W 122°22'0 0.0
2018-Apr-24 11:27N 37°54' W 122°22'0 0.0
2018-Apr-24 11:00N 37°54' W 122°22'0 0.0
2018-Apr-24 10:30N 37°54' W 122°22'0 0.0
2018-Apr-24 10:00N 37°54' W 122°22'0 0.0
2018-Apr-24 09:30N 37°54' W 122°22'0 0.0
2018-Apr-24 09:00N 37°54' W 122°22'0 0.0
2018-Apr-24 08:30N 37°54' W 122°22'0 0.0
2018-Apr-24 08:00N 37°54' W 122°22'0 0.0
2018-Apr-24 07:30N 37°54' W 122°22'0 0.0
2018-Apr-24 07:00N 37°54' W 122°22'0 0.0
2018-Apr-24 06:30N 37°54' W 122°22'0 0.0
2018-Apr-24 06:00N 37°54' W 122°22'0 0.0
2018-Apr-24 05:30N 37°54' W 122°22'0 0.0
2018-Apr-24 05:00N 37°54' W 122°22'0 0.3
2018-Apr-24 04:30N 37°54' W 122°23'1 2.1
2018-Apr-24 04:00N 37°55' W 122°22'1 1.8
2018-Apr-24 03:30N 37°54' W 122°22'0 0.0
2018-Apr-24 03:00N 37°54' W 122°22'0 0.0
2018-Apr-24 02:30N 37°54' W 122°22'0 0.0
2018-Apr-24 02:00N 37°54' W 122°22'0 0.8
2018-Apr-24 01:30N 37°54' W 122°23'3 5.4
2018-Apr-24 01:00N 37°52' W 122°23'3 6.1
2018-Apr-24 00:30N 37°49' W 122°21'3 6.0
2018-Apr-24 00:00N 37°48' W 122°18'0 0.3
2018-Apr-23 23:29N 37°48' W 122°18'0 0.0
2018-Apr-23 22:59N 37°48' W 122°18'0 0.0
2018-Apr-23 22:29N 37°48' W 122°18'0 0.0
2018-Apr-23 21:59N 37°48' W 122°18'0 0.0
2018-Apr-23 21:29N 37°48' W 122°18'0 0.0
2018-Apr-23 20:59N 37°48' W 122°18'0 0.0
2018-Apr-23 20:29N 37°48' W 122°18'0 0.0
2018-Apr-23 19:59N 37°48' W 122°18'0 0.0
2018-Apr-23 19:30N 37°48' W 122°18'1 2.2
2018-Apr-23 19:00N 37°48' W 122°19'2 4.3
2018-Apr-23 18:30N 37°46' W 122°21'1 2.7
2018-Apr-23 17:58N 37°44' W 122°21'0 0.0
2018-Apr-23 17:28N 37°44' W 122°21'0 0.0
2018-Apr-23 16:58N 37°44' W 122°21'0 0.0
2018-Apr-23 16:28N 37°44' W 122°21'0 0.0
2018-Apr-23 15:58N 37°44' W 122°21'0 0.0
2018-Apr-23 15:28N 37°44' W 122°21'0 0.0
2018-Apr-23 14:58N 37°44' W 122°21'0 0.2
2018-Apr-23 14:28N 37°44' W 122°21'0 0.2
2018-Apr-23 13:58N 37°44' W 122°21'0 0.1
2018-Apr-23 13:28N 37°44' W 122°21'0 0.6
2018-Apr-23 13:00N 37°44' W 122°21'4 7.0
2018-Apr-23 12:31N 37°47' W 122°23'3 6.0
2018-Apr-23 12:00N 37°50' W 122°23'3 5.8
2018-Apr-23 11:31N 37°53' W 122°24'2 3.6
2018-Apr-23 11:00N 37°54' W 122°23'0 0.8
2018-Apr-23 10:30N 37°54' W 122°22'0 0.0
2018-Apr-23 09:58N 37°54' W 122°22'0 0.0
2018-Apr-23 09:28N 37°54' W 122°22'0 0.1
2018-Apr-23 09:00N 37°54' W 122°22'1 1.9
2018-Apr-23 08:31N 37°55' W 122°22'1 1.1
2018-Apr-23 08:00N 37°55' W 122°22'1 2.8
2018-Apr-23 07:31N 37°54' W 122°23'2 3.6
2018-Apr-23 07:01N 37°56' W 122°25'0 0.1
2018-Apr-23 06:31N 37°56' W 122°25'3 5.0
2018-Apr-23 06:01N 37°54' W 122°22'0 0.0
2018-Apr-23 05:30N 37°54' W 122°22'0 0.0
2018-Apr-23 05:00N 37°54' W 122°22'0 0.0
2018-Apr-23 04:30N 37°54' W 122°22'0 0.0
2018-Apr-23 04:00N 37°54' W 122°22'0 0.0
2018-Apr-23 03:30N 37°54' W 122°22'0 0.0
2018-Apr-23 02:57N 37°54' W 122°22'0 0.0
2018-Apr-23 02:30N 37°54' W 122°22'0 0.0
2018-Apr-23 02:00N 37°54' W 122°22'0 0.0
2018-Apr-23 01:30N 37°54' W 122°22'0 0.0
2018-Apr-23 01:00N 37°54' W 122°22'0 0.0
2018-Apr-23 00:30N 37°54' W 122°22'0 0.0
2018-Apr-23 00:00N 37°54' W 122°22'0 0.0
2018-Apr-22 23:27N 37°54' W 122°22'0 0.0
2018-Apr-22 23:00N 37°54' W 122°22'0 0.2
2018-Apr-22 22:30N 37°54' W 122°22'1 1.9
2018-Apr-22 22:01N 37°55' W 122°22'1 1.8
2018-Apr-22 21:30N 37°54' W 122°22'0 0.1
2018-Apr-22 21:01N 37°54' W 122°22'0 0.0
2018-Apr-22 20:29N 37°54' W 122°22'0 0.0
2018-Apr-22 19:59N 37°54' W 122°22'0 0.0
2018-Apr-22 19:29N 37°54' W 122°22'0 0.0
2018-Apr-22 18:59N 37°54' W 122°22'0 0.0
2018-Apr-22 18:29N 37°54' W 122°22'0 0.0
2018-Apr-22 17:59N 37°54' W 122°22'0 0.0
2018-Apr-22 17:29N 37°54' W 122°22'0 0.0
2018-Apr-22 16:59N 37°54' W 122°22'0 0.0
2018-Apr-22 16:29N 37°54' W 122°22'0 0.0
2018-Apr-22 15:59N 37°54' W 122°22'0 0.0
2018-Apr-22 15:29N 37°54' W 122°22'0 0.0
2018-Apr-22 14:59N 37°54' W 122°22'0 0.0
2018-Apr-22 14:29N 37°54' W 122°22'0 0.0
2018-Apr-22 13:59N 37°54' W 122°22'0 0.0
2018-Apr-22 13:29N 37°54' W 122°22'0 0.0
2018-Apr-22 12:59N 37°54' W 122°22'0 0.0
2018-Apr-22 12:29N 37°54' W 122°22'0 0.0
2018-Apr-22 11:59N 37°54' W 122°22'0 0.0
2018-Apr-22 11:29N 37°54' W 122°22'0 0.0
2018-Apr-22 10:59N 37°54' W 122°22'0 0.0
2018-Apr-22 10:26N 37°54' W 122°22'0 0.0
2018-Apr-22 09:59N 37°54' W 122°22'0 0.0
2018-Apr-22 09:29N 37°54' W 122°22'0 0.0
2018-Apr-22 08:59N 37°54' W 122°22'0 0.0
2018-Apr-22 08:29N 37°54' W 122°22'0 0.0
2018-Apr-22 07:59N 37°54' W 122°22'0 0.0
2018-Apr-22 07:29N 37°54' W 122°22'0 0.0
2018-Apr-22 06:59N 37°54' W 122°22'0 0.0
2018-Apr-22 06:29N 37°54' W 122°22'0 0.0
2018-Apr-22 05:59N 37°54' W 122°22'0 0.0
2018-Apr-22 05:29N 37°54' W 122°22'0 0.0
2018-Apr-22 04:59N 37°54' W 122°22'2 4.2
2018-Apr-22 04:30N 37°55' W 122°25'1 1.0
2018-Apr-22 04:00N 37°55' W 122°25'1 1.4
2018-Apr-22 03:30N 37°55' W 122°25'1 2.4
2018-Apr-22 03:00N 37°54' W 122°24'2 3.0
2018-Apr-22 02:30N 37°54' W 122°22'0 0.0
2018-Apr-22 02:00N 37°54' W 122°22'0 0.4
2018-Apr-22 01:30N 37°54' W 122°23'3 5.7
2018-Apr-22 01:00N 37°51' W 122°23'4 7.6
2018-Apr-22 00:31N 37°48' W 122°21'1 2.5
2018-Apr-22 00:00N 37°48' W 122°19'0 0.0
2018-Apr-21 23:30N 37°48' W 122°19'0 0.0
2018-Apr-21 23:00N 37°48' W 122°19'0 0.0
2018-Apr-21 22:30N 37°48' W 122°19'0 0.0
2018-Apr-21 22:00N 37°48' W 122°19'0 0.0
2018-Apr-21 21:30N 37°48' W 122°19'0 0.0
2018-Apr-21 21:00N 37°48' W 122°19'0 0.0
2018-Apr-21 20:30N 37°48' W 122°19'0 0.0
2018-Apr-21 20:00N 37°48' W 122°19'0 0.0
2018-Apr-21 19:30N 37°48' W 122°19'0 0.0
2018-Apr-21 19:00N 37°48' W 122°19'0 0.0
2018-Apr-21 18:30N 37°48' W 122°19'0 0.0
2018-Apr-21 18:00N 37°48' W 122°19'0 0.0
2018-Apr-21 17:30N 37°48' W 122°19'0 0.0
2018-Apr-21 17:00N 37°48' W 122°19'0 0.0
2018-Apr-21 16:30N 37°48' W 122°19'0 0.0
2018-Apr-21 16:00N 37°48' W 122°19'0 0.0
2018-Apr-21 15:30N 37°48' W 122°19'1 1.7
2018-Apr-21 15:00N 37°48' W 122°20'2 4.1
2018-Apr-21 14:30N 37°50' W 122°22'2 4.4
2018-Apr-21 14:00N 37°51' W 122°23'3 6.2
2018-Apr-21 13:30N 37°54' W 122°24'1 2.8
2018-Apr-21 13:00N 37°54' W 122°22'0 0.1
2018-Apr-21 12:30N 37°54' W 122°22'0 0.0
2018-Apr-21 11:59N 37°54' W 122°22'0 0.0
2018-Apr-21 11:29N 37°54' W 122°22'0 0.0
2018-Apr-21 10:59N 37°54' W 122°22'0 0.0
2018-Apr-21 10:29N 37°54' W 122°22'0 0.0
2018-Apr-21 09:59N 37°54' W 122°22'0 0.0
2018-Apr-21 09:29N 37°54' W 122°22'0 0.0
2018-Apr-21 08:59N 37°54' W 122°22'0 0.0
2018-Apr-21 08:29N 37°54' W 122°22'0 0.0
2018-Apr-21 07:59N 37°54' W 122°22'0 0.0
2018-Apr-21 07:29N 37°54' W 122°22'0 0.0
2018-Apr-21 06:59N 37°54' W 122°22'0 0.0
2018-Apr-21 06:29N 37°54' W 122°22'0 0.0
2018-Apr-21 05:59N 37°54' W 122°22'0 0.0
2018-Apr-21 05:29N 37°54' W 122°22'0 0.0
2018-Apr-21 04:59N 37°54' W 122°22'0 0.0
2018-Apr-21 04:31N 37°54' W 122°22'0 0.2
2018-Apr-21 04:00N 37°54' W 122°22'1 1.7
2018-Apr-21 03:29N 37°55' W 122°22'1 1.6
2018-Apr-21 02:58N 37°54' W 122°22'0 0.0
2018-Apr-21 02:28N 37°54' W 122°22'0 0.0
2018-Apr-21 01:58N 37°54' W 122°22'0 0.0
2018-Apr-21 01:28N 37°54' W 122°22'0 0.0
2018-Apr-21 00:58N 37°54' W 122°22'0 0.0
2018-Apr-21 00:28N 37°54' W 122°22'0 0.0
2018-Apr-20 23:58N 37°54' W 122°22'0 0.0
2018-Apr-20 23:28N 37°54' W 122°22'0 0.0
2018-Apr-20 22:55N 37°54' W 122°22'0 0.0
2018-Apr-20 22:28N 37°54' W 122°22'0 0.0
2018-Apr-20 21:58N 37°54' W 122°22'0 0.0
2018-Apr-20 21:25N 37°54' W 122°22'0 0.0
2018-Apr-20 20:58N 37°54' W 122°22'0 0.0
2018-Apr-20 20:25N 37°54' W 122°22'0 0.0
2018-Apr-20 20:00N 37°54' W 122°22'0 0.0
2018-Apr-20 19:30N 37°54' W 122°22'0 0.0
2018-Apr-20 19:00N 37°54' W 122°22'0 0.0
2018-Apr-20 18:30N 37°54' W 122°22'0 0.0
2018-Apr-20 18:00N 37°54' W 122°22'0 0.1
2018-Apr-20 17:27N 37°54' W 122°22'2 3.7
2018-Apr-20 17:00N 37°54' W 122°24'3 5.9
2018-Apr-20 16:30N 37°51' W 122°23'4 7.4
2018-Apr-20 16:00N 37°47' W 122°21'1 2.4
2018-Apr-20 15:29N 37°46' W 122°21'0 0.0
2018-Apr-20 14:59N 37°46' W 122°21'0 0.0
2018-Apr-20 14:29N 37°46' W 122°21'0 0.0
2018-Apr-20 13:59N 37°46' W 122°21'0 0.0
2018-Apr-20 13:29N 37°46' W 122°21'0 0.0
2018-Apr-20 12:59N 37°46' W 122°21'0 0.1
2018-Apr-20 12:29N 37°46' W 122°20'0 0.0
2018-Apr-20 11:59N 37°46' W 122°20'0 0.2
2018-Apr-20 11:29N 37°46' W 122°20'0 0.4
2018-Apr-20 10:59N 37°46' W 122°20'0 0.1
2018-Apr-20 10:29N 37°46' W 122°20'0 0.0
2018-Apr-20 09:59N 37°46' W 122°20'0 0.0
2018-Apr-20 09:30N 37°46' W 122°20'1 2.2
2018-Apr-20 09:00N 37°47' W 122°21'4 7.4
2018-Apr-20 08:30N 37°50' W 122°23'3 6.0
2018-Apr-20 08:00N 37°53' W 122°24'2 4.0
2018-Apr-20 07:30N 37°54' W 122°22'1 2.1
2018-Apr-20 07:00N 37°55' W 122°22'1 2.0
2018-Apr-20 06:31N 37°54' W 122°22'0 0.8
2018-Apr-20 05:58N 37°54' W 122°22'0 0.0
2018-Apr-20 05:28N 37°54' W 122°22'0 0.0
2018-Apr-20 04:58N 37°54' W 122°22'0 0.0
2018-Apr-20 04:28N 37°54' W 122°22'0 0.0
2018-Apr-20 03:58N 37°54' W 122°22'0 0.0
2018-Apr-20 03:28N 37°54' W 122°22'0 0.0
2018-Apr-20 02:59N 37°54' W 122°22'1 1.9
2018-Apr-20 02:30N 37°55' W 122°22'2 3.0
2018-Apr-20 02:01N 37°54' W 122°24'3 5.9
2018-Apr-20 01:31N 37°51' W 122°24'4 8.3
2018-Apr-20 01:01N 37°48' W 122°21'2 4.2
2018-Apr-20 00:30N 37°46' W 122°21'0 0.2
2018-Apr-20 00:00N 37°46' W 122°21'0 0.2
2018-Apr-19 23:29N 37°45' W 122°21'0 0.1
2018-Apr-19 22:59N 37°45' W 122°21'0 0.0
2018-Apr-19 22:29N 37°45' W 122°21'0 0.1
2018-Apr-19 21:59N 37°45' W 122°21'0 0.0
2018-Apr-19 21:29N 37°45' W 122°21'0 0.0
2018-Apr-19 21:00N 37°45' W 122°21'0 0.0
2018-Apr-19 20:30N 37°45' W 122°21'1 2.8
2018-Apr-19 20:00N 37°47' W 122°21'2 4.4
2018-Apr-19 19:30N 37°49' W 122°20'0 1.0
2018-Apr-19 19:00N 37°49' W 122°19'0 0.9
2018-Apr-19 18:30N 37°49' W 122°20'0 0.0
2018-Apr-19 18:00N 37°49' W 122°20'0 0.0
2018-Apr-19 17:30N 37°49' W 122°20'0 0.0
2018-Apr-19 17:00N 37°49' W 122°20'0 0.0
2018-Apr-19 16:30N 37°49' W 122°20'0 0.0
2018-Apr-19 16:00N 37°49' W 122°20'0 0.0
2018-Apr-19 15:30N 37°49' W 122°20'0 0.0
2018-Apr-19 15:00N 37°49' W 122°20'0 0.0
2018-Apr-19 14:30N 37°49' W 122°20'0 0.0
2018-Apr-19 14:00N 37°49' W 122°20'0 0.0
2018-Apr-19 13:30N 37°49' W 122°20'0 0.3
2018-Apr-19 13:00N 37°49' W 122°20'2 3.7
2018-Apr-19 12:30N 37°50' W 122°22'2 4.5
2018-Apr-19 12:00N 37°52' W 122°24'3 5.7
2018-Apr-19 11:30N 37°54' W 122°24'2 3.7
2018-Apr-19 11:00N 37°55' W 122°22'1 1.6
2018-Apr-19 10:30N 37°54' W 122°22'0 0.0
2018-Apr-19 09:58N 37°54' W 122°22'0 0.0
2018-Apr-19 09:28N 37°54' W 122°22'0 0.0
2018-Apr-19 08:58N 37°54' W 122°22'0 0.0
2018-Apr-19 08:28N 37°54' W 122°22'0 0.0
2018-Apr-19 07:58N 37°54' W 122°22'0 0.0
2018-Apr-19 07:28N 37°54' W 122°22'0 0.0
2018-Apr-19 06:58N 37°54' W 122°22'0 0.0
2018-Apr-19 06:28N 37°54' W 122°22'0 0.0
2018-Apr-19 05:58N 37°54' W 122°22'0 0.0
2018-Apr-19 05:28N 37°54' W 122°22'0 0.0
2018-Apr-19 04:58N 37°54' W 122°22'0 0.0
2018-Apr-19 04:28N 37°54' W 122°22'0 0.0
2018-Apr-19 03:58N 37°54' W 122°22'0 0.0
2018-Apr-19 03:28N 37°54' W 122°22'1 3.1
2018-Apr-19 03:00N 37°54' W 122°24'5 9.2
2018-Apr-19 02:30N 37°50' W 122°22'4 8.1
2018-Apr-19 02:00N 37°47' W 122°17'0 0.2
2018-Apr-19 01:30N 37°48' W 122°18'1 2.1
2018-Apr-19 01:00N 37°48' W 122°19'3 5.8
2018-Apr-19 00:30N 37°50' W 122°22'3 6.5
2018-Apr-19 00:00N 37°52' W 122°24'2 4.6
2018-Apr-18 23:30N 37°54' W 122°23'0 0.7
2018-Apr-18 23:00N 37°54' W 122°22'1 1.9
2018-Apr-18 22:30N 37°55' W 122°22'1 2.2
2018-Apr-18 22:00N 37°54' W 122°23'2 4.6
2018-Apr-18 21:30N 37°52' W 122°24'3 6.7
2018-Apr-18 21:00N 37°49' W 122°22'3 6.1
2018-Apr-18 20:30N 37°48' W 122°18'0 0.9
2018-Apr-18 20:00N 37°48' W 122°18'0 0.0
2018-Apr-18 19:30N 37°48' W 122°18'0 0.0
2018-Apr-18 19:00N 37°48' W 122°18'0 0.0
2018-Apr-18 18:29N 37°48' W 122°18'0 0.0
2018-Apr-18 17:59N 37°48' W 122°18'0 0.0
2018-Apr-18 17:29N 37°48' W 122°18'0 0.0
2018-Apr-18 16:59N 37°48' W 122°18'0 0.0
2018-Apr-18 16:29N 37°48' W 122°18'0 0.0
2018-Apr-18 15:59N 37°48' W 122°18'0 0.0
2018-Apr-18 15:29N 37°48' W 122°18'0 0.0
2018-Apr-18 14:59N 37°48' W 122°18'0 0.6
2018-Apr-18 14:30N 37°48' W 122°18'3 6.1
2018-Apr-18 14:00N 37°49' W 122°22'0 0.1
2018-Apr-18 13:30N 37°49' W 122°22'0 0.0
2018-Apr-18 13:00N 37°49' W 122°22'0 0.0
2018-Apr-18 12:30N 37°49' W 122°22'0 0.0
2018-Apr-18 12:00N 37°49' W 122°22'0 0.0
2018-Apr-18 11:30N 37°49' W 122°22'0 0.0
2018-Apr-18 11:00N 37°49' W 122°22'0 0.0
2018-Apr-18 10:27N 37°49' W 122°22'0 0.0
2018-Apr-18 09:57N 37°49' W 122°22'0 0.0
2018-Apr-18 09:30N 37°49' W 122°22'0 0.0
2018-Apr-18 09:00N 37°49' W 122°22'0 0.0
2018-Apr-18 08:30N 37°49' W 122°22'0 0.0
2018-Apr-18 08:00N 37°49' W 122°22'0 0.0
2018-Apr-18 07:30N 37°49' W 122°22'0 0.0
2018-Apr-18 07:00N 37°49' W 122°22'0 0.0
2018-Apr-18 06:30N 37°49' W 122°22'0 0.0
2018-Apr-18 06:00N 37°49' W 122°22'2 4.3
2018-Apr-18 05:31N 37°51' W 122°23'3 6.2
2018-Apr-18 05:00N 37°54' W 122°24'2 4.4
2018-Apr-18 04:30N 37°55' W 122°22'0 1.0
2018-Apr-18 04:00N 37°55' W 122°22'1 1.9
2018-Apr-18 03:29N 37°54' W 122°22'0 0.0
2018-Apr-18 02:59N 37°54' W 122°22'0 0.0
2018-Apr-18 02:29N 37°54' W 122°22'0 0.0
2018-Apr-18 01:59N 37°54' W 122°22'0 0.0
2018-Apr-18 01:29N 37°54' W 122°22'2 3.8
2018-Apr-18 01:00N 37°53' W 122°24'5 9.1
2018-Apr-18 00:30N 37°49' W 122°22'0 0.3
2018-Apr-18 00:00N 37°49' W 122°22'2 3.2
2018-Apr-17 23:30N 37°50' W 122°23'3 5.1
2018-Apr-17 23:01N 37°53' W 122°24'2 3.8
2018-Apr-17 22:30N 37°54' W 122°23'1 2.3
2018-Apr-17 22:00N 37°55' W 122°22'0 0.1
2018-Apr-17 21:31N 37°55' W 122°22'1 1.6
2018-Apr-17 21:01N 37°54' W 122°22'0 0.0
2018-Apr-17 20:30N 37°54' W 122°22'0 0.0
2018-Apr-17 20:00N 37°54' W 122°22'1 1.8
2018-Apr-17 19:30N 37°55' W 122°22'0 0.9
2018-Apr-17 19:00N 37°55' W 122°22'2 4.9
2018-Apr-17 18:30N 37°53' W 122°24'3 6.8
2018-Apr-17 18:00N 37°50' W 122°23'3 5.2
2018-Apr-17 17:30N 37°47' W 122°22'2 2.8
2018-Apr-17 16:59N 37°46' W 122°21'0 0.0
2018-Apr-17 16:29N 37°46' W 122°21'0 0.0
2018-Apr-17 15:59N 37°46' W 122°21'0 0.1
2018-Apr-17 15:29N 37°46' W 122°21'0 0.3
2018-Apr-17 14:59N 37°46' W 122°21'0 0.1
2018-Apr-17 14:29N 37°46' W 122°21'0 0.0
2018-Apr-17 13:59N 37°46' W 122°21'0 0.0
2018-Apr-17 13:29N 37°46' W 122°21'0 0.1
2018-Apr-17 12:59N 37°46' W 122°21'0 0.0
2018-Apr-17 12:29N 37°46' W 122°21'0 0.0
2018-Apr-17 11:59N 37°46' W 122°21'0 0.0
2018-Apr-17 11:30N 37°46' W 122°21'1 2.1
2018-Apr-17 11:00N 37°47' W 122°21'2 3.8
2018-Apr-17 10:30N 37°49' W 122°22'0 0.0
2018-Apr-17 10:00N 37°49' W 122°22'0 0.0
2018-Apr-17 09:30N 37°49' W 122°22'0 0.0
2018-Apr-17 09:00N 37°49' W 122°22'0 0.0
2018-Apr-17 08:30N 37°49' W 122°22'0 0.0
2018-Apr-17 08:00N 37°49' W 122°22'0 0.0
2018-Apr-17 07:30N 37°49' W 122°22'0 0.0
2018-Apr-17 07:00N 37°49' W 122°22'0 0.0
2018-Apr-17 06:30N 37°49' W 122°22'0 0.0
2018-Apr-17 06:00N 37°49' W 122°22'0 0.0
2018-Apr-17 05:30N 37°49' W 122°22'0 0.0
2018-Apr-17 05:00N 37°49' W 122°22'0 0.0
2018-Apr-17 04:30N 37°49' W 122°22'0 0.0
2018-Apr-17 04:00N 37°49' W 122°22'0 0.0
2018-Apr-17 03:30N 37°49' W 122°22'0 0.0
2018-Apr-17 03:00N 37°49' W 122°22'0 0.0
2018-Apr-17 02:30N 37°49' W 122°22'0 0.0
2018-Apr-17 02:00N 37°49' W 122°22'0 0.0
2018-Apr-17 01:30N 37°49' W 122°22'0 0.0
2018-Apr-17 01:00N 37°49' W 122°22'0 0.0
2018-Apr-17 00:30N 37°49' W 122°22'0 0.0
2018-Apr-17 00:00N 37°49' W 122°22'0 0.0
2018-Apr-16 23:30N 37°49' W 122°22'0 0.0
2018-Apr-16 23:00N 37°49' W 122°22'0 0.0
2018-Apr-16 22:30N 37°49' W 122°22'0 0.0
2018-Apr-16 22:00N 37°49' W 122°22'0 0.0
2018-Apr-16 21:30N 37°49' W 122°22'0 0.0
2018-Apr-16 21:00N 37°49' W 122°22'0 0.0
2018-Apr-16 20:30N 37°49' W 122°22'2 4.3
2018-Apr-16 20:00N 37°48' W 122°20'1 2.6
2018-Apr-16 19:30N 37°48' W 122°18'0 0.0
2018-Apr-16 18:59N 37°48' W 122°18'0 0.0
2018-Apr-16 18:29N 37°48' W 122°18'0 0.0
2018-Apr-16 17:59N 37°48' W 122°18'0 0.0
2018-Apr-16 17:29N 37°48' W 122°18'0 0.0
2018-Apr-16 16:59N 37°48' W 122°18'0 0.0
2018-Apr-16 16:29N 37°48' W 122°18'0 0.0
2018-Apr-16 15:59N 37°48' W 122°18'0 0.0
2018-Apr-16 15:29N 37°48' W 122°18'3 6.0
2018-Apr-16 15:00N 37°49' W 122°21'1 1.1
2018-Apr-16 14:30N 37°49' W 122°22'0 0.0
2018-Apr-16 14:00N 37°49' W 122°22'0 0.0
2018-Apr-16 13:30N 37°49' W 122°22'0 0.0
2018-Apr-16 13:00N 37°49' W 122°22'0 0.0
2018-Apr-16 12:30N 37°49' W 122°22'0 0.0
2018-Apr-16 12:00N 37°49' W 122°22'0 0.0
2018-Apr-16 11:30N 37°49' W 122°22'0 0.0
2018-Apr-16 11:00N 37°49' W 122°22'1 2.4
2018-Apr-16 10:30N 37°50' W 122°22'4 7.3
2018-Apr-16 10:00N 37°54' W 122°24'2 3.3
2018-Apr-16 09:30N 37°54' W 122°22'1 2.8
2018-Apr-16 09:00N 37°54' W 122°24'4 7.4
2018-Apr-16 08:30N 37°51' W 122°23'3 6.7
2018-Apr-16 08:00N 37°49' W 122°19'0 0.0
2018-Apr-16 07:30N 37°49' W 122°19'0 0.0
2018-Apr-16 07:00N 37°49' W 122°19'0 0.0
2018-Apr-16 06:30N 37°49' W 122°19'0 0.0
2018-Apr-16 06:00N 37°49' W 122°19'0 0.0
2018-Apr-16 05:30N 37°49' W 122°19'0 0.0
2018-Apr-16 05:00N 37°49' W 122°19'0 0.0
2018-Apr-16 04:30N 37°49' W 122°19'0 0.0
2018-Apr-16 04:00N 37°49' W 122°19'0 0.0
2018-Apr-16 03:30N 37°49' W 122°19'  

Dump ship's entire track history